createdAt,value
2022-10-25T00:00:43.282Z,13.9
2022-10-25T00:02:45.166Z,13.9
2022-10-25T00:04:46.914Z,13.8
2022-10-25T00:06:48.754Z,13.9
2022-10-25T00:08:50.553Z,14
2022-10-25T00:10:55.621Z,14.1
2022-10-25T00:12:57.420Z,13.8
2022-10-25T00:14:59.280Z,13.8
2022-10-25T00:17:01.067Z,14
2022-10-25T00:19:02.883Z,13.9
2022-10-25T00:21:04.711Z,13.9
2022-10-25T00:23:06.493Z,13.9
2022-10-25T00:25:11.558Z,13.9
2022-10-25T00:27:13.384Z,13.7
2022-10-25T00:29:15.232Z,13.8
2022-10-25T00:30:17.761Z,13.8
2022-10-25T00:32:19.557Z,13.8
2022-10-25T00:34:21.361Z,13.8
2022-10-25T00:36:23.204Z,13.7
2022-10-25T00:38:28.374Z,14
2022-10-25T00:40:30.073Z,14.2
2022-10-25T00:42:31.869Z,14.2
2022-10-25T00:44:33.691Z,14.2
2022-10-25T00:46:35.512Z,14.2
2022-10-25T00:50:39.151Z,14.3
2022-10-25T00:56:47.866Z,14.4
2022-10-25T00:58:49.651Z,14.4
2022-10-25T01:00:51.475Z,14.4
2022-10-25T01:04:55.125Z,14.4
2022-10-25T01:07:00.183Z,14.5
2022-10-25T01:09:02.038Z,14.6
2022-10-25T01:11:03.886Z,14.6
2022-10-25T01:13:05.663Z,14.6
2022-10-25T01:15:07.487Z,14.6
2022-10-25T01:19:11.175Z,14.5
2022-10-25T01:21:16.214Z,14.5
2022-10-25T01:23:18.046Z,14.5
2022-10-25T01:25:19.899Z,14.4
2022-10-25T01:26:22.397Z,14.5
2022-10-25T01:28:24.222Z,14.5
2022-10-25T01:32:27.869Z,14.4
2022-10-25T01:34:32.939Z,14.5
2022-10-25T01:36:34.743Z,14.5
2022-10-25T01:40:38.402Z,14.5
2022-10-25T01:42:40.235Z,14.6
2022-10-25T01:46:43.874Z,14.6
2022-10-25T01:48:48.953Z,14.7
2022-10-25T01:50:50.760Z,14.7
2022-10-25T01:54:54.413Z,14.7
2022-10-25T01:56:56.237Z,14.6
2022-10-25T01:58:58.060Z,14.7
2022-10-25T02:00:59.967Z,14.6
2022-10-25T02:03:04.972Z,14.7
2022-10-25T02:05:06.784Z,14.8
2022-10-25T02:07:08.609Z,14.7
2022-10-25T02:09:10.423Z,14.7
2022-10-25T02:11:12.242Z,14.8
2022-10-25T02:13:14.087Z,14.7
2022-10-25T02:15:15.889Z,14.7
2022-10-25T02:17:20.987Z,14.7
2022-10-25T02:19:22.811Z,14.7
2022-10-25T02:21:24.615Z,14.7
2022-10-25T02:22:27.148Z,14.7
2022-10-25T02:24:28.977Z,14.9
2022-10-25T02:26:30.784Z,14.7
2022-10-25T02:28:32.625Z,14.8
2022-10-25T02:30:37.814Z,14.7
2022-10-25T02:32:39.514Z,14.7
2022-10-25T02:34:41.336Z,14.6
2022-10-25T02:36:43.164Z,14.5
2022-10-25T02:38:44.989Z,14.7
2022-10-25T02:40:46.820Z,14.8
2022-10-25T02:44:53.707Z,14.8
2022-10-25T02:46:55.527Z,14.8
2022-10-25T02:48:57.353Z,14.7
2022-10-25T02:50:59.173Z,14.9
2022-10-25T02:53:01.002Z,14.9
2022-10-25T02:55:02.856Z,14.8
2022-10-25T02:57:04.688Z,14.9
2022-10-25T02:59:09.723Z,15
2022-10-25T03:01:11.676Z,15
2022-10-25T03:03:13.359Z,15.1
2022-10-25T03:05:15.192Z,14.9
2022-10-25T03:07:17.026Z,15.1
2022-10-25T03:09:18.850Z,15
2022-10-25T03:11:20.671Z,15.1
2022-10-25T03:13:25.757Z,15.2
2022-10-25T03:15:27.590Z,15.2
2022-10-25T03:17:29.400Z,15
2022-10-25T03:19:58.037Z,15
2022-10-25T03:21:59.881Z,15.1
2022-10-25T03:24:01.706Z,15.1
2022-10-25T03:26:06.773Z,15.1
2022-10-25T03:28:08.638Z,15.2
2022-10-25T03:30:10.450Z,15
2022-10-25T03:32:12.303Z,15.2
2022-10-25T03:34:14.141Z,15.1
2022-10-25T03:36:15.971Z,15.1
2022-10-25T03:38:17.807Z,15
2022-10-25T03:40:22.887Z,15
2022-10-25T03:42:24.703Z,14.9
2022-10-25T03:44:26.538Z,15.1
2022-10-25T03:46:28.351Z,15.1
2022-10-25T03:48:30.186Z,15
2022-10-25T03:50:31.992Z,15
2022-10-25T03:52:33.842Z,14.9
2022-10-25T03:54:38.905Z,14.9
2022-10-25T03:56:42.283Z,15.1
2022-10-25T03:58:44.043Z,15.1
2022-10-25T04:00:45.988Z,14.9
2022-10-25T04:02:47.755Z,14.9
2022-10-25T04:04:49.532Z,14.9
2022-10-25T04:06:51.345Z,15
2022-10-25T04:08:56.432Z,14.9
2022-10-25T04:10:58.256Z,15
2022-10-25T04:13:00.102Z,14.9
2022-10-25T04:14:02.641Z,15.1
2022-10-25T04:16:04.441Z,15
2022-10-25T04:18:06.295Z,15
2022-10-25T04:20:08.110Z,14.9
2022-10-25T04:22:13.191Z,14.8
2022-10-25T04:24:15.002Z,14.9
2022-10-25T04:26:16.823Z,15
2022-10-25T04:28:18.660Z,14.9
2022-10-25T04:30:20.507Z,14.9
2022-10-25T04:32:22.311Z,14.9
2022-10-25T04:34:24.142Z,15
2022-10-25T04:36:29.232Z,15.1
2022-10-25T04:38:31.034Z,15.1
2022-10-25T04:40:32.881Z,15
2022-10-25T04:42:34.693Z,15.1
2022-10-25T04:44:36.552Z,15
2022-10-25T04:46:38.357Z,15.1
2022-10-25T04:48:40.221Z,15
2022-10-25T04:50:45.285Z,14.9
2022-10-25T04:52:47.439Z,14.8
2022-10-25T04:54:48.916Z,14.8
2022-10-25T04:56:50.745Z,14.9
2022-10-25T05:00:54.406Z,14.9
2022-10-25T05:02:56.273Z,14.9
2022-10-25T05:05:01.308Z,14.8
2022-10-25T05:07:03.137Z,14.9
2022-10-25T05:09:04.962Z,15
2022-10-25T05:10:07.487Z,14.9
2022-10-25T05:12:09.335Z,14.9
2022-10-25T05:14:11.190Z,15
2022-10-25T05:16:12.977Z,15
2022-10-25T05:18:18.060Z,14.7
2022-10-25T05:20:19.867Z,14.8
2022-10-25T05:22:21.703Z,14.7
2022-10-25T05:24:23.525Z,14.9
2022-10-25T05:26:25.336Z,14.8
2022-10-25T05:28:27.213Z,14.8
2022-10-25T05:30:28.996Z,15
2022-10-25T05:32:34.084Z,14.9
2022-10-25T05:34:35.892Z,15
2022-10-25T05:36:37.725Z,14.9
2022-10-25T05:38:39.558Z,14.8
2022-10-25T05:40:41.380Z,14.9
2022-10-25T05:42:43.216Z,14.9
2022-10-25T05:44:45.022Z,15
2022-10-25T05:46:50.124Z,14.9
2022-10-25T05:48:51.940Z,14.8
2022-10-25T05:50:59.338Z,14.9
2022-10-25T05:52:55.588Z,14.9
2022-10-25T05:54:57.426Z,14.8
2022-10-25T06:03:07.993Z,14.9
2022-10-25T06:05:09.791Z,14.9
2022-10-25T06:06:12.336Z,14.9
2022-10-25T06:08:14.133Z,14.8
2022-10-25T06:10:15.950Z,14.8
2022-10-25T06:12:17.810Z,14.9
2022-10-25T06:14:22.856Z,14.9
2022-10-25T06:16:24.705Z,14.9
2022-10-25T06:18:26.505Z,15
2022-10-25T06:22:30.180Z,14.9
2022-10-25T06:24:32.001Z,14.8
2022-10-25T06:26:33.810Z,14.8
2022-10-25T06:30:40.710Z,14.7
2022-10-25T06:32:42.540Z,14.8
2022-10-25T06:34:44.374Z,14.8
2022-10-25T06:40:49.863Z,14.8
2022-10-25T06:42:54.911Z,14.7
2022-10-25T06:44:56.744Z,14.8
2022-10-25T06:47:16.343Z,14.7
2022-10-25T06:49:00.400Z,14.7
2022-10-25T06:51:02.217Z,14.9
2022-10-25T06:53:04.046Z,14.7
2022-10-25T06:55:05.858Z,14.8
2022-10-25T06:57:10.919Z,14.8
2022-10-25T06:59:12.748Z,14.8
2022-10-25T07:03:43.269Z,14.8
2022-10-25T07:05:45.108Z,14.8
2022-10-25T07:07:47.186Z,14.9
2022-10-25T07:09:51.987Z,14.9
2022-10-25T07:11:53.819Z,14.9
2022-10-25T07:13:55.634Z,14.8
2022-10-25T07:15:57.451Z,14.9
2022-10-25T07:17:59.264Z,14.7
2022-10-25T07:20:01.097Z,14.8
2022-10-25T07:22:02.910Z,14.8
2022-10-25T07:24:08.005Z,15
2022-10-25T07:26:09.804Z,14.9
2022-10-25T07:28:11.619Z,15.1
2022-10-25T07:30:13.465Z,15.2
2022-10-25T07:32:15.283Z,15.2
2022-10-25T07:34:17.118Z,15.1
2022-10-25T07:36:18.915Z,15.4
2022-10-25T07:38:27.648Z,15.5
2022-10-25T07:40:25.812Z,15.5
2022-10-25T07:42:27.657Z,15.8
2022-10-25T07:44:29.494Z,15.7
2022-10-25T07:46:31.325Z,15.5
2022-10-25T07:48:33.146Z,15.3
2022-10-25T07:50:34.956Z,15.4
2022-10-25T07:52:40.038Z,17.2
2022-10-25T07:56:43.699Z,18.5
2022-10-25T07:57:46.634Z,17.6
2022-10-25T07:59:48.065Z,17.4
2022-10-25T08:01:49.950Z,19.2
2022-10-25T08:03:51.706Z,19.2
2022-10-25T08:05:56.786Z,17.9
2022-10-25T08:07:58.628Z,17.1
2022-10-25T08:10:00.465Z,16.4
2022-10-25T08:12:02.290Z,16.5
2022-10-25T08:14:04.106Z,16.4
2022-10-25T08:16:05.929Z,16.6
2022-10-25T08:18:07.775Z,16.8
2022-10-25T08:20:12.846Z,16.9
2022-10-25T08:24:16.681Z,16.5
2022-10-25T08:28:20.175Z,16.6
2022-10-25T08:30:22.014Z,17.1
2022-10-25T08:36:30.744Z,19.6
2022-10-25T08:38:32.566Z,20.5
2022-10-25T08:42:36.244Z,20
2022-10-25T08:44:38.086Z,18.5
2022-10-25T08:46:39.900Z,18.3
2022-10-25T08:48:45.012Z,17.1
2022-10-25T08:53:51.328Z,17.4
2022-10-25T08:57:54.902Z,16.9
2022-10-25T08:59:56.717Z,16.6
2022-10-25T09:04:03.632Z,20.6
2022-10-25T09:12:10.948Z,19.9
2022-10-25T09:18:19.727Z,21.1
2022-10-25T09:20:21.530Z,19.5
2022-10-25T09:22:23.362Z,18.9
2022-10-25T09:24:25.207Z,19.4
2022-10-25T09:26:27.034Z,20.7
2022-10-25T09:28:28.864Z,20.2
2022-10-25T09:30:33.949Z,20.8
2022-10-25T09:34:37.596Z,20.7
2022-10-25T09:40:47.559Z,21.9
2022-10-25T09:42:44.937Z,21.3
2022-10-25T09:44:50.040Z,20.2
2022-10-25T09:49:57.768Z,18.2
2022-10-25T09:56:03.265Z,17.8
2022-10-25T09:58:08.367Z,17.5
2022-10-25T10:00:10.194Z,18.2
2022-10-25T10:02:12.165Z,19.4
2022-10-25T10:04:13.862Z,21
2022-10-25T10:06:15.721Z,21.1
2022-10-25T10:08:17.553Z,21.6
2022-10-25T10:10:19.370Z,21.7
2022-10-25T10:12:24.477Z,21.6
2022-10-25T10:14:26.319Z,21.6
2022-10-25T10:16:28.140Z,21.2
2022-10-25T10:22:33.642Z,21.1
2022-10-25T10:28:42.390Z,21.3
2022-10-25T10:30:44.205Z,21.1
2022-10-25T10:47:28.729Z,20.7
2022-10-25T10:49:30.589Z,20.7
2022-10-25T10:51:43.484Z,20.3
2022-10-25T10:53:37.494Z,22.7
2022-10-25T10:55:39.330Z,22.1
2022-10-25T10:57:41.038Z,21.1
2022-10-25T10:59:42.770Z,21
2022-10-25T11:01:44.761Z,22.5
2022-10-25T11:03:58.755Z,22.8
2022-10-25T11:05:48.188Z,21.3
2022-10-25T11:07:53.153Z,22.6
2022-10-25T11:09:54.877Z,22.9
2022-10-25T11:11:56.601Z,22.4
2022-10-25T11:13:58.339Z,24.2
2022-10-25T11:16:00.089Z,24.2
2022-10-25T11:18:01.787Z,22.3
2022-10-25T11:20:03.514Z,22.3
2022-10-25T11:22:08.396Z,22.2
2022-10-25T11:24:10.101Z,21.8
2022-10-25T11:26:11.843Z,22.4
2022-10-25T11:28:13.608Z,23.8
2022-10-25T11:30:15.290Z,23.5
2022-10-25T11:32:17.027Z,23.7
2022-10-25T11:34:18.737Z,23.7
2022-10-25T11:36:23.741Z,23.1
2022-10-25T11:38:25.564Z,22.9
2022-10-25T11:40:27.358Z,22.8
2022-10-25T11:41:29.802Z,23.4
2022-10-25T11:43:31.539Z,23.8
2022-10-25T11:45:33.368Z,24.1
2022-10-25T11:47:35.061Z,24
2022-10-25T11:49:39.942Z,23.7
2022-10-25T11:51:41.667Z,24.2
2022-10-25T11:53:43.381Z,24
2022-10-25T11:55:45.092Z,23.3
2022-10-25T11:57:46.826Z,21.3
2022-10-25T11:59:48.544Z,21.6
2022-10-25T12:01:50.411Z,21.1
2022-10-25T12:03:55.134Z,21.5
2022-10-25T12:05:56.830Z,21.7
2022-10-25T12:07:58.542Z,22.8
2022-10-25T12:10:00.255Z,21.1
2022-10-25T12:12:01.997Z,21.6
2022-10-25T12:14:03.725Z,20.3
2022-10-25T12:16:05.441Z,19.7
2022-10-25T12:18:10.330Z,20
2022-10-25T12:20:12.148Z,20.5
2022-10-25T12:22:13.850Z,21.5
2022-10-25T12:24:15.589Z,24
2022-10-25T12:26:17.312Z,24.2
2022-10-25T12:28:19.030Z,25
2022-10-25T12:30:20.772Z,24.4
2022-10-25T12:32:25.617Z,23.9
2022-10-25T12:34:27.349Z,23.2
2022-10-25T12:36:29.066Z,22.3
2022-10-25T12:39:33.226Z,20.6
2022-10-25T12:41:34.943Z,20.2
2022-10-25T12:43:36.664Z,19.8
2022-10-25T12:45:41.565Z,19
2022-10-25T12:47:43.275Z,19.4
2022-10-25T12:49:44.980Z,20.8
2022-10-25T13:04:00.208Z,20.5
2022-10-25T13:06:01.925Z,19.5
2022-10-25T13:08:03.641Z,19.1
2022-10-25T13:12:07.085Z,19.1
2022-10-25T13:14:12.059Z,19.3
2022-10-25T13:16:13.791Z,19.4
2022-10-25T13:22:19.175Z,19.3
2022-10-25T13:24:20.992Z,19.2
2022-10-25T13:28:29.066Z,19.2
2022-10-25T13:30:29.866Z,19.3
2022-10-25T13:32:31.380Z,19
2022-10-25T13:37:37.474Z,18.7
2022-10-25T13:39:39.293Z,18.9
2022-10-25T13:41:44.391Z,18.7
2022-10-25T13:43:46.241Z,18.9
2022-10-25T13:45:48.053Z,18.8
2022-10-25T13:47:49.911Z,18.6
2022-10-25T13:56:00.520Z,18.6
2022-10-25T13:58:02.344Z,18.6
2022-10-25T14:02:06.185Z,18.3
2022-10-25T14:04:07.856Z,18.5
2022-10-25T14:06:09.672Z,18.5
2022-10-25T14:08:11.531Z,18.3
2022-10-25T14:10:16.678Z,18.1
2022-10-25T14:12:20.428Z,18.2
2022-10-25T14:14:20.276Z,18.2
2022-10-25T14:16:22.117Z,18.2
2022-10-25T14:18:23.953Z,18.1
2022-10-25T14:20:25.800Z,18.2
2022-10-25T14:22:30.320Z,18.3
2022-10-25T14:24:32.708Z,18.6
2022-10-25T14:26:34.545Z,18.5
2022-10-25T14:28:36.398Z,18.3
2022-10-25T14:31:05.066Z,18
2022-10-25T14:33:06.909Z,17.9
2022-10-25T14:35:08.747Z,17.8
2022-10-25T14:41:17.522Z,17.8
2022-10-25T14:43:19.346Z,17.9
2022-10-25T14:45:21.182Z,17.8
2022-10-25T14:47:23.035Z,17.7
2022-10-25T14:51:29.959Z,17.7
2022-10-25T14:53:31.781Z,17.7
2022-10-25T14:55:33.629Z,17.7
2022-10-25T14:57:35.461Z,17.7
2022-10-25T14:59:40.255Z,17.6
2022-10-25T15:01:39.273Z,17.6
2022-10-25T15:03:40.980Z,17.7
2022-10-25T15:05:46.101Z,17.6
2022-10-25T15:07:47.953Z,17.6
2022-10-25T15:09:49.853Z,17.5
2022-10-25T15:11:51.617Z,17.5
2022-10-25T15:13:53.459Z,17.4
2022-10-25T15:15:55.303Z,17.2
2022-10-25T15:17:57.132Z,17.2
2022-10-25T15:20:02.224Z,17.2
2022-10-25T15:22:04.051Z,17.2
2022-10-25T15:24:05.897Z,17.1
2022-10-25T15:25:08.454Z,17.1
2022-10-25T15:29:12.122Z,17.2
2022-10-25T15:31:16.122Z,16.9
2022-10-25T15:33:19.026Z,17
2022-10-25T15:35:20.870Z,17.1
2022-10-25T15:39:26.098Z,16.9
2022-10-25T15:41:27.874Z,16.8
2022-10-25T15:43:29.723Z,16.8
2022-10-25T15:45:31.553Z,16.7
2022-10-25T15:47:36.638Z,16.8
2022-10-25T15:49:38.471Z,16.6
2022-10-25T15:51:40.330Z,16.6
2022-10-25T15:53:42.146Z,16.8
2022-10-25T15:55:43.988Z,16.5
2022-10-25T15:57:45.814Z,16.5
2022-10-25T15:59:47.643Z,16.4
2022-10-25T16:01:52.896Z,16.4
2022-10-25T16:03:54.571Z,16.5
2022-10-25T16:05:56.405Z,16.4
2022-10-25T16:07:58.221Z,16.3
2022-10-25T16:10:00.057Z,16.3
2022-10-25T16:12:01.897Z,16.1
2022-10-25T16:14:03.715Z,16.1
2022-10-25T16:16:34.968Z,16.2
2022-10-25T16:18:10.642Z,16
2022-10-25T16:20:12.471Z,16.1
2022-10-25T16:23:16.859Z,15.9
2022-10-25T16:25:18.686Z,15.9
2022-10-25T16:27:20.516Z,15.8
2022-10-25T16:31:27.433Z,15.9
2022-10-25T16:33:29.270Z,15.9
2022-10-25T16:35:31.101Z,15.7
2022-10-25T16:37:32.934Z,15.7
2022-10-25T16:39:34.759Z,15.7
2022-10-25T16:41:36.575Z,15.7
2022-10-25T16:43:44.625Z,15.6
2022-10-25T16:45:43.489Z,15.5
2022-10-25T16:49:47.148Z,15.4
2022-10-25T16:51:48.960Z,15.4
2022-10-25T16:53:50.788Z,15.3
2022-10-25T16:55:52.624Z,15.2
2022-10-25T16:57:57.682Z,15.3
2022-10-25T16:59:59.535Z,15.2
2022-10-25T17:02:01.482Z,15.3
2022-10-25T17:04:03.182Z,15.1
2022-10-25T17:06:22.172Z,15.2
2022-10-25T17:08:06.878Z,15.1
2022-10-25T17:10:08.690Z,15.1
2022-10-25T17:12:13.774Z,15
2022-10-25T17:14:15.611Z,15.1
2022-10-25T17:16:17.433Z,14.9
2022-10-25T17:21:23.688Z,14.9
2022-10-25T17:31:36.108Z,14.6
2022-10-25T17:33:37.908Z,14.5
2022-10-25T17:35:39.735Z,14.6
2022-10-25T17:37:41.545Z,14.4
2022-10-25T17:39:46.621Z,14.4
2022-10-25T17:41:48.448Z,14.5
2022-10-25T17:43:53.168Z,14.5
2022-10-25T17:45:52.104Z,14.5
2022-10-25T17:47:53.924Z,14.4
2022-10-25T17:51:57.603Z,14.4
2022-10-25T17:54:02.664Z,14.3
2022-10-25T17:58:06.302Z,14.2
2022-10-25T18:00:08.149Z,14.1
2022-10-25T18:02:10.132Z,14.2
2022-10-25T18:08:18.672Z,14.1
2022-10-25T18:10:20.484Z,14
2022-10-25T18:12:22.332Z,13.9
2022-10-25T18:14:55.428Z,13.9
2022-10-25T18:16:52.845Z,13.9
2022-10-25T18:18:54.667Z,14
2022-10-25T18:20:59.718Z,13.8
2022-10-25T18:23:01.522Z,13.8
2022-10-25T18:25:03.360Z,13.7
2022-10-25T18:27:05.177Z,13.8
2022-10-25T18:29:06.998Z,13.7
2022-10-25T18:31:08.809Z,13.7
2022-10-25T18:33:10.614Z,13.7
2022-10-25T18:35:15.683Z,13.5
2022-10-25T18:37:17.531Z,13.6
2022-10-25T18:39:20.197Z,13.6
2022-10-25T18:41:22.002Z,13.5
2022-10-25T18:43:23.852Z,13.5
2022-10-25T18:47:27.434Z,13.3
2022-10-25T18:51:34.301Z,13.2
2022-10-25T18:53:36.138Z,13.2
2022-10-25T18:55:38.048Z,13.2
2022-10-25T18:57:39.741Z,13.3
2022-10-25T18:59:41.551Z,13.3
2022-10-25T19:01:43.452Z,13.3
2022-10-25T19:03:48.399Z,13.1
2022-10-25T19:05:50.231Z,13.3
2022-10-25T19:07:52.040Z,13.1
2022-10-25T19:08:54.580Z,13.1
2022-10-25T19:10:56.398Z,12.9
2022-10-25T19:12:58.204Z,13
2022-10-25T19:15:00.009Z,13
2022-10-25T19:17:05.053Z,12.9
2022-10-25T19:19:06.854Z,13.1
2022-10-25T19:21:08.676Z,13
2022-10-25T19:23:10.481Z,12.9
2022-10-25T19:25:12.283Z,13
2022-10-25T19:27:14.092Z,12.9
2022-10-25T19:29:15.905Z,12.9
2022-10-25T19:31:20.964Z,12.8
2022-10-25T19:33:22.758Z,12.8
2022-10-25T19:35:24.555Z,12.8
2022-10-25T19:37:26.369Z,12.7
2022-10-25T19:39:28.176Z,12.6
2022-10-25T19:41:29.967Z,12.6
2022-10-25T19:43:31.774Z,12.4
2022-10-25T19:45:36.837Z,12.5
2022-10-25T19:47:38.636Z,12.7
2022-10-25T19:49:40.443Z,12.6
2022-10-25T19:51:42.247Z,12.6
2022-10-25T19:53:44.049Z,12.5
2022-10-25T19:55:46.156Z,12.5
2022-10-25T19:57:48.027Z,12.5
2022-10-25T19:59:52.691Z,12.5
2022-10-25T20:01:54.582Z,12.5
2022-10-25T20:03:56.330Z,12.4
2022-10-25T20:04:58.862Z,12.4
2022-10-25T20:07:00.643Z,12.3
2022-10-25T20:09:02.460Z,12.4
2022-10-25T20:11:04.269Z,12.3
2022-10-25T20:13:09.316Z,12.4
2022-10-25T20:17:12.884Z,12.3
2022-10-25T20:19:14.704Z,12.2
2022-10-25T20:21:16.496Z,12.2
2022-10-25T20:23:18.292Z,12.3
2022-10-25T20:25:20.115Z,12.2
2022-10-25T20:27:25.131Z,12.1
2022-10-25T20:29:26.921Z,12.1
2022-10-25T20:31:28.713Z,12
2022-10-25T20:33:30.508Z,12.1
2022-10-25T20:35:32.295Z,12.2
2022-10-25T20:37:34.083Z,12.2
2022-10-25T20:39:35.895Z,12.1
2022-10-25T20:41:40.938Z,12.2
2022-10-25T20:43:42.708Z,12
2022-10-25T20:45:44.504Z,12.1
2022-10-25T20:47:46.616Z,12.1
2022-10-25T20:49:48.088Z,12
2022-10-25T20:51:49.873Z,12
2022-10-25T20:53:51.657Z,11.9
2022-10-25T20:55:56.712Z,11.9
2022-10-25T20:57:58.496Z,11.9
2022-10-25T21:00:00.295Z,11.8
2022-10-25T21:05:06.364Z,11.9
2022-10-25T21:07:08.161Z,11.9
2022-10-25T21:13:16.752Z,11.8
2022-10-25T21:17:20.335Z,11.8
2022-10-25T21:19:22.126Z,11.8
2022-10-25T21:21:23.922Z,11.8
2022-10-25T21:23:28.932Z,11.8
2022-10-25T21:25:30.740Z,11.7
2022-10-25T21:27:32.515Z,11.7
2022-10-25T21:29:34.291Z,11.6
2022-10-25T21:31:37.633Z,11.6
2022-10-25T21:33:39.375Z,11.6
2022-10-25T21:35:41.160Z,11.6
2022-10-25T21:37:49.055Z,11.5
2022-10-25T21:39:47.974Z,11.7
2022-10-25T21:41:49.764Z,11.6
2022-10-25T21:43:51.547Z,11.6
2022-10-25T21:45:53.342Z,11.5
2022-10-25T21:47:55.116Z,11.4
2022-10-25T21:52:01.596Z,11.3
2022-10-25T21:54:03.395Z,11.4
2022-10-25T21:56:05.175Z,11.3
2022-10-25T21:58:33.829Z,11.3
2022-10-25T22:00:35.631Z,11.3
2022-10-25T22:02:37.570Z,11.2
2022-10-25T22:04:42.417Z,11.4
2022-10-25T22:06:44.219Z,11.3
2022-10-25T22:08:45.989Z,11.3
2022-10-25T22:10:47.841Z,11.2
2022-10-25T22:12:49.933Z,11.2
2022-10-25T22:14:51.410Z,11.2
2022-10-25T22:16:53.203Z,11.2
2022-10-25T22:18:58.218Z,11.1
2022-10-25T22:20:59.995Z,11.1
2022-10-25T22:23:01.795Z,11.1
2022-10-25T22:25:03.549Z,11.2
2022-10-25T22:27:05.334Z,11.1
2022-10-25T22:29:07.105Z,11.2
2022-10-25T22:31:08.901Z,11.1
2022-10-25T22:33:13.935Z,11.1
2022-10-25T22:39:19.243Z,11.1
2022-10-25T22:41:21.029Z,11.2
2022-10-25T22:43:22.816Z,11.1
2022-10-25T22:45:24.585Z,11
2022-10-25T22:47:29.612Z,11.1
2022-10-25T22:49:31.386Z,10.9
2022-10-25T22:51:33.211Z,11
2022-10-25T22:52:35.786Z,10.9
2022-10-25T22:54:37.456Z,11
2022-10-25T22:56:39.230Z,11.1
2022-10-25T22:58:41.032Z,11
2022-10-25T23:00:46.032Z,10.9
2022-10-25T23:02:48.181Z,11
2022-10-25T23:04:49.575Z,10.9
2022-10-25T23:06:51.363Z,10.9
2022-10-25T23:08:53.133Z,10.9
2022-10-25T23:10:54.922Z,10.9
2022-10-25T23:12:56.727Z,10.9
2022-10-25T23:15:01.727Z,10.9
2022-10-25T23:17:03.475Z,10.8
2022-10-25T23:19:05.255Z,10.8
2022-10-25T23:21:07.045Z,10.8
2022-10-25T23:23:08.810Z,10.6
2022-10-25T23:25:10.561Z,10.7
2022-10-25T23:27:12.351Z,10.8
2022-10-25T23:31:19.117Z,10.7
2022-10-25T23:33:20.894Z,10.7
2022-10-25T23:35:22.659Z,10.7
2022-10-25T23:37:24.417Z,10.7
2022-10-25T23:39:26.190Z,10.6
2022-10-25T23:41:27.972Z,10.7
2022-10-25T23:43:33.004Z,10.7
2022-10-25T23:45:34.760Z,10.7
2022-10-25T23:47:36.548Z,10.6
2022-10-25T23:48:39.037Z,10.8
2022-10-25T23:50:40.834Z,10.7
2022-10-25T23:52:42.591Z,10.8
2022-10-25T23:54:44.407Z,10.6
2022-10-25T23:56:49.405Z,10.6
2022-10-25T23:58:51.180Z,10.7
